createdAt,value
2022-07-30T00:13:11.008Z,20.24
2022-07-30T00:33:35.310Z,19.87
2022-07-30T00:53:56.070Z,19.62
2022-07-30T01:14:16.654Z,19.69
2022-07-30T01:34:18.524Z,19.59
2022-07-30T01:54:20.415Z,19.88
2022-07-30T02:14:41.382Z,19.79
2022-07-30T02:34:43.762Z,19.64
2022-07-30T02:54:46.036Z,19.56
2022-07-30T03:14:47.920Z,19.31
2022-07-30T03:34:50.416Z,19.32
2022-07-30T03:54:52.192Z,19.44
2022-07-30T04:16:31.752Z,19.59
2022-07-30T04:35:50.629Z,19.39
2022-07-30T04:56:04.445Z,18.60
2022-07-30T05:16:06.494Z,18.52
2022-07-30T05:36:09.469Z,18.63
2022-07-30T05:56:13.806Z,18.81
2022-07-30T06:16:36.598Z,18.53
2022-07-30T06:36:38.848Z,18.24
2022-07-30T06:57:00.035Z,18.14
2022-07-30T07:17:20.622Z,18.12
2022-07-30T07:37:41.391Z,18.08
2022-07-30T07:58:01.699Z,18.21
2022-07-30T08:18:22.259Z,18.46
2022-07-30T08:38:42.261Z,18.57
2022-07-30T08:58:45.181Z,18.57
2022-07-30T09:18:47.257Z,18.83
2022-07-30T09:38:49.531Z,18.91
2022-07-30T09:59:10.238Z,19.22
2022-07-30T10:19:41.913Z,19.58
2022-07-30T10:40:07.051Z,19.90
2022-07-30T11:00:28.029Z,20.20
2022-07-30T11:20:31.214Z,20.10
2022-07-30T11:40:33.387Z,21.05
2022-07-30T12:00:35.086Z,21.23
2022-07-30T12:20:37.003Z,21.99
2022-07-30T12:40:38.915Z,23.16
2022-07-30T13:00:59.930Z,21.02
2022-07-30T13:21:01.873Z,22.08
2022-07-30T13:41:06.694Z,22.89
2022-07-30T14:01:08.741Z,23.16
2022-07-30T14:21:10.869Z,23.88
2022-07-30T14:41:12.669Z,22.81
2022-07-30T15:01:15.750Z,22.09
2022-07-30T15:21:18.373Z,21.62
2022-07-30T15:41:20.608Z,23.07
2022-07-30T16:01:22.429Z,22.66
2022-07-30T16:21:24.261Z,22.82
2022-07-30T16:41:26.050Z,22.13
2022-07-30T17:01:27.743Z,21.68
2022-07-30T17:21:31.686Z,21.28
2022-07-30T17:41:33.468Z,19.44
2022-07-30T18:01:35.071Z,18.12
2022-07-30T18:21:38.533Z,18.35
2022-07-30T18:41:40.952Z,18.23
2022-07-30T19:01:42.796Z,17.98
2022-07-30T19:21:45.258Z,18.02
2022-07-30T19:41:47.982Z,17.96
2022-07-30T20:01:52.962Z,18.24
2022-07-30T20:22:13.593Z,18.80
2022-07-30T20:42:18.641Z,18.90
2022-07-30T21:22:45.248Z,18.25
2022-07-30T21:42:48.960Z,18.02
2022-07-30T22:02:52.810Z,17.99
2022-07-30T22:22:55.317Z,18.05
2022-07-30T22:42:57.485Z,17.88
2022-07-30T23:12:31.100Z,18.37
